Time;durP1;ratioP1;P1;durP2;ratioP2;P2;SDS_P1;SDS_P2;PMS_P1;PMS_P2;Temp;Humidity;BMP_temperature;BMP_pressure;BME280_temperature;BME280_humidity;BME280_pressure;Samples;Min_cycle;Max_cycle;Signal;HPM_P1;HPM_P2
2022/05/15 09:19:19;;;;;;;7.05;5.63;;;;;;;23.43;69.01;96282.28;4882081;27;2043710;-86
2022/05/15 09:21:47;;;;;;;7.00;5.05;;;;;;;23.34;70.68;96279.47;5038722;28;20232;-85
2022/05/15 09:24:33;;;;;;;7.03;5.82;;;;;;;23.18;71.43;96278.22;5084866;28;20201;-86
2022/05/15 09:27:13;;;;;;;6.47;5.35;;;;;;;23.48;68.98;96282.97;5102197;28;20208;-84
2022/05/15 09:29:41;;;;;;;9.85;5.80;;;;;;;23.27;69.70;96274.41;5096912;28;20204;-85
2022/05/15 09:32:25;;;;;;;5.85;4.97;;;;;;;23.61;68.09;96275.78;5101060;28;20212;-85
2022/05/15 09:34:57;;;;;;;7.10;5.15;;;;;;;23.87;67.53;96276.75;5094762;28;20218;-86
2022/05/15 09:40:23;;;;;;;6.80;5.18;;;;;;;24.09;65.50;96287.72;5107339;28;20217;-85
2022/05/15 09:45:57;;;;;;;6.25;4.90;;;;;;;24.09;66.07;96282.19;5096717;28;20225;-85
2022/05/15 09:48:32;;;;;;;7.43;5.22;;;;;;;24.20;63.38;96279.97;5101788;28;20205;-86
2022/05/15 09:51:04;;;;;;;7.82;5.13;;;;;;;24.20;63.49;96274.47;5090111;28;20239;-85
2022/05/15 09:53:42;;;;;;;6.32;5.50;;;;;;;24.19;63.93;96275.59;5086517;28;20208;-86
2022/05/15 09:56:13;;;;;;;6.53;4.97;;;;;;;24.24;63.72;96271.91;5114818;28;20225;-86
2022/05/15 09:58:47;;;;;;;5.60;5.00;;;;;;;24.45;65.22;96270.19;5089014;28;20224;-85
2022/05/15 10:01:25;;;;;;;7.80;5.03;;;;;;;24.50;65.28;96262.56;5091859;28;20231;-85
2022/05/15 10:03:58;;;;;;;5.60;4.82;;;;;;;24.76;63.90;96270.06;5083581;28;20205;-85
2022/05/15 10:06:29;;;;;;;8.32;5.25;;;;;;;24.77;63.34;96263.41;5092543;28;20208;-85
2022/05/15 10:09:14;;;;;;;5.80;5.00;;;;;;;24.69;64.57;96262.28;5089703;28;20592;-86
2022/05/15 10:11:45;;;;;;;6.15;5.38;;;;;;;24.63;65.50;96266.34;5093706;28;20208;-85
2022/05/15 10:14:23;;;;;;;6.30;5.10;;;;;;;24.59;65.56;96262.56;5087103;28;20258;-85
2022/05/15 10:16:56;;;;;;;6.47;5.15;;;;;;;24.68;67.23;96257.88;5087627;28;20200;-86
2022/05/15 10:19:32;;;;;;;6.57;5.15;;;;;;;24.83;65.26;96260.19;5091044;28;20273;-87
2022/05/15 10:22:21;;;;;;;5.90;5.38;;;;;;;25.00;65.14;96250.34;5095366;28;20243;-84
2022/05/15 10:24:50;;;;;;;8.77;5.53;;;;;;;24.96;64.72;96254.88;5092534;28;20199;-86
2022/05/15 10:27:22;;;;;;;5.68;4.88;;;;;;;24.89;62.57;96238.75;5098142;28;20193;-85
2022/05/15 10:29:56;;;;;;;6.90;5.68;;;;;;;24.99;62.71;96241.22;5091910;28;20251;-85
2022/05/15 10:32:29;;;;;;;6.78;4.93;;;;;;;24.96;63.37;96246.56;5087157;28;20200;-85
2022/05/15 10:34:56;;;;;;;8.07;5.07;;;;;;;25.01;63.08;96235.38;5079714;28;20269;-85
2022/05/15 10:37:53;;;;;;;6.65;5.32;;;;;;;25.07;62.64;96223.84;5078956;28;20208;-84
2022/05/15 10:40:31;;;;;;;7.95;5.70;;;;;;;25.25;60.80;96232.94;5088846;28;20204;-84
2022/05/15 10:43:12;;;;;;;5.35;4.85;;;;;;;25.16;61.71;96232.13;5075625;28;20261;-86
2022/05/15 10:45:48;;;;;;;7.95;4.80;;;;;;;25.30;61.14;96224.47;5085327;28;20208;-85
2022/05/15 10:48:34;;;;;;;5.60;5.10;;;;;;;25.45;62.11;96228.66;5083513;28;20273;-85
2022/05/15 10:51:09;;;;;;;6.55;5.03;;;;;;;25.62;62.74;96218.41;5077167;28;20202;-86
2022/05/15 10:59:46;;;;;;;6.15;5.35;;;;;;;25.63;62.33;96211.72;5088122;28;20657;-85
2022/05/15 11:02:57;;;;;;;6.43;4.72;;;;;;;25.68;59.88;96207.19;5093389;28;20202;-85
2022/05/15 11:05:28;;;;;;;6.68;5.15;;;;;;;25.81;59.49;96209.72;5083650;28;20201;-85
2022/05/15 11:08:05;;;;;;;5.60;4.80;;;;;;;25.99;57.15;96208.50;5074502;28;20205;-86
2022/05/15 11:10:42;;;;;;;6.22;4.78;;;;;;;25.99;57.54;96207.69;5078431;28;20267;-85
2022/05/15 11:13:15;;;;;;;5.57;4.90;;;;;;;25.96;58.23;96200.88;5070098;28;20266;-85
2022/05/15 11:15:54;;;;;;;7.45;5.15;;;;;;;26.08;57.84;96186.34;5070299;28;20296;-86
2022/05/15 11:18:47;;;;;;;5.93;5.32;;;;;;;26.20;58.45;96194.72;5080274;28;20235;-85
2022/05/15 11:21:18;;;;;;;5.63;5.03;;;;;;;26.03;56.91;96196.78;5078657;28;20233;-85
2022/05/15 11:23:54;;;;;;;6.03;4.88;;;;;;;26.03;58.46;96180.19;5084252;28;20277;-85
2022/05/15 11:26:27;;;;;;;5.15;4.65;;;;;;;26.18;57.09;96185.16;5076186;28;20217;-86
2022/05/15 11:28:57;;;;;;;5.97;5.07;;;;;;;26.23;57.60;96183.00;5103153;28;20263;-86
2022/05/15 11:31:30;;;;;;;8.98;5.55;;;;;;;26.33;57.24;96176.28;5074868;28;20236;-85
2022/05/15 11:34:02;;;;;;;8.25;5.63;;;;;;;26.37;56.17;96183.56;5078452;28;20197;-85
2022/05/15 11:36:38;;;;;;;6.60;5.40;;;;;;;26.46;55.99;96179.94;5078976;28;20200;-85
2022/05/15 11:39:22;;;;;;;5.95;5.13;;;;;;;26.64;55.41;96181.44;5073822;28;20224;-86
2022/05/15 11:42:17;;;;;;;7.25;5.30;;;;;;;26.62;56.05;96178.22;5090260;28;20229;-86
2022/05/15 11:44:46;;;;;;;7.35;5.25;;;;;;;26.69;56.24;96178.50;5076690;28;20208;-85
2022/05/15 11:47:31;;;;;;;8.13;5.25;;;;;;;26.69;56.72;96167.41;5091968;28;20287;-86
2022/05/15 11:50:10;;;;;;;4.95;4.50;;;;;;;26.96;55.85;96172.44;5081129;28;20327;-85
2022/05/15 11:52:43;;;;;;;9.27;4.72;;;;;;;27.10;55.89;96166.59;5076391;28;20270;-85
2022/05/15 11:55:46;;;;;;;7.80;5.18;;;;;;;27.29;55.51;96166.09;5076979;28;20216;-85
2022/05/15 11:58:39;;;;;;;7.63;4.75;;;;;;;27.31;53.20;96161.00;5068063;28;20225;-85
2022/05/15 12:01:14;;;;;;;7.00;5.07;;;;;;;27.37;54.30;96156.88;5074850;28;20301;-85
2022/05/15 12:03:54;;;;;;;6.30;4.65;;;;;;;27.42;54.08;96151.09;5072534;28;20215;-86
2022/05/15 12:06:25;;;;;;;7.88;6.15;;;;;;;27.41;52.58;96155.81;5083567;28;20205;-84
2022/05/15 12:09:09;;;;;;;9.40;6.47;;;;;;;27.59;53.13;96145.38;5069006;28;20201;-86
2022/05/15 12:11:37;;;;;;;26.42;21.50;;;;;;;27.86;51.06;96152.25;5080308;28;20215;-86
2022/05/15 12:14:35;;;;;;;12.13;9.80;;;;;;;27.64;51.46;96145.19;5079208;28;20220;-85
2022/05/15 12:17:24;;;;;;;9.50;8.00;;;;;;;27.88;51.04;96140.78;5080298;28;20213;-85
2022/05/15 12:19:51;;;;;;;15.23;12.40;;;;;;;27.98;50.74;96129.25;5071424;28;20225;-86
2022/05/15 12:22:19;;;;;;;17.45;10.82;;;;;;;28.05;50.49;96132.25;5078555;28;20228;-86
2022/05/15 12:24:48;;;;;;;18.75;15.10;;;;;;;28.06;50.77;96133.88;5083971;28;20205;-85
2022/05/15 12:27:28;;;;;;;20.85;16.48;;;;;;;28.23;52.02;96136.44;5084895;28;20197;-84
2022/05/15 12:30:12;;;;;;;22.23;19.50;;;;;;;28.32;49.84;96139.88;5074101;28;20205;-85
2022/05/15 12:32:43;;;;;;;16.23;13.88;;;;;;;28.31;49.31;96129.13;5070130;28;20213;-84
2022/05/15 12:35:14;;;;;;;11.05;8.77;;;;;;;28.20;50.49;96131.56;5076091;28;20232;-83
2022/05/15 12:37:57;;;;;;;12.98;10.82;;;;;;;28.18;50.89;96122.75;5079240;28;20259;-84
2022/05/15 12:40:33;;;;;;;10.68;9.07;;;;;;;28.19;50.60;96127.97;5075799;28;20212;-83
2022/05/15 12:43:01;;;;;;;10.25;8.02;;;;;;;28.27;48.35;96129.00;5075864;28;20201;-84
2022/05/15 12:45:33;;;;;;;11.05;8.25;;;;;;;28.08;49.53;96117.66;5068623;28;20255;-84
2022/05/15 12:48:09;;;;;;;15.75;11.20;;;;;;;27.97;49.46;96116.53;5082371;28;20205;-85
2022/05/15 12:50:50;;;;;;;14.95;12.73;;;;;;;28.11;48.68;96116.97;5073159;28;20344;-85
2022/05/15 12:53:24;;;;;;;8.98;7.63;;;;;;;27.99;49.79;96111.41;5074147;28;20209;-85
2022/05/15 12:55:55;;;;;;;5.88;5.28;;;;;;;28.06;50.61;96106.91;5072593;28;20231;-86
2022/05/15 12:58:36;;;;;;;9.07;7.35;;;;;;;28.11;48.88;96108.63;5085988;28;20213;-86
2022/05/15 13:01:05;;;;;;;11.07;8.90;;;;;;;28.36;49.36;96117.78;5084454;28;20215;-85
2022/05/15 13:03:33;;;;;;;7.97;5.72;;;;;;;28.18;48.99;96120.81;5079214;28;20206;-86
2022/05/15 13:06:03;;;;;;;6.22;5.60;;;;;;;28.21;47.90;96106.22;5075663;28;20455;-86
2022/05/15 13:08:44;;;;;;;10.68;8.98;;;;;;;28.49;51.09;96106.31;5077535;28;20213;-84
2022/05/15 13:11:19;;;;;;;8.68;6.20;;;;;;;28.76;49.08;96109.44;5080865;28;20212;-84
2022/05/15 13:13:48;;;;;;;6.90;5.35;;;;;;;28.77;47.32;96103.56;5069879;28;20213;-84
2022/05/15 13:16:20;;;;;;;6.00;4.75;;;;;;;28.58;47.89;96097.81;5082466;28;20295;-83
2022/05/15 13:18:51;;;;;;;8.95;6.18;;;;;;;28.73;47.40;96096.25;5074730;28;20236;-83
2022/05/15 13:21:25;;;;;;;8.05;4.70;;;;;;;28.53;48.00;96098.88;5083570;28;20220;-84
2022/05/15 13:23:53;;;;;;;5.88;5.10;;;;;;;28.44;48.20;96089.88;5079395;28;20204;-84
2022/05/15 13:26:26;;;;;;;6.80;6.13;;;;;;;28.59;48.12;96091.91;5083827;28;20200;-83
2022/05/15 13:28:55;;;;;;;7.47;5.25;;;;;;;28.81;47.03;96085.03;5075365;28;20201;-84
2022/05/15 13:31:23;;;;;;;5.40;4.57;;;;;;;28.70;47.34;96077.50;5093595;28;20193;-83
2022/05/15 13:33:54;;;;;;;6.03;4.43;;;;;;;28.73;47.33;96079.59;5096970;28;20215;-84
2022/05/15 13:36:21;;;;;;;6.07;4.65;;;;;;;28.61;47.67;96072.91;5076232;28;20209;-83
2022/05/15 13:44:40;;;;;;;5.85;4.38;;;;;;;28.51;47.34;96069.81;5026190;28;20207;-84
2022/05/15 13:47:11;;;;;;;7.05;4.90;;;;;;;28.40;48.04;96058.41;5069593;28;20248;-84
2022/05/15 13:49:41;;;;;;;5.90;4.40;;;;;;;28.44;47.27;96058.50;5077247;28;20228;-83
2022/05/15 13:52:24;;;;;;;7.30;4.63;;;;;;;28.37;47.81;96053.56;5078504;28;20227;-84
2022/05/15 13:54:51;;;;;;;6.25;4.80;;;;;;;28.51;47.64;96059.50;5082548;28;20205;-84
2022/05/15 13:57:20;;;;;;;7.53;4.60;;;;;;;28.62;47.07;96062.63;5081467;28;20212;-85
2022/05/15 14:00:05;;;;;;;5.20;4.70;;;;;;;28.55;46.41;96051.31;5069739;28;20232;-83
2022/05/15 14:02:55;;;;;;;6.90;4.50;;;;;;;28.51;47.87;96048.41;5079435;28;20219;-83
2022/05/15 14:05:23;;;;;;;5.13;4.63;;;;;;;28.57;47.78;96046.22;5079074;28;20442;-83
2022/05/15 14:07:51;;;;;;;7.30;4.60;;;;;;;28.43;49.11;96043.81;5091576;28;20205;-84
2022/05/15 14:10:22;;;;;;;5.30;4.53;;;;;;;28.61;47.22;96042.34;5087707;28;20220;-84
2022/05/15 14:13:00;;;;;;;8.30;4.43;;;;;;;28.70;47.38;96033.06;5075356;28;20304;-84
2022/05/15 14:15:37;;;;;;;5.35;4.80;;;;;;;28.66;47.87;96029.38;5071302;28;20213;-84
2022/05/15 14:18:09;;;;;;;6.63;4.60;;;;;;;28.92;48.27;96033.31;5080345;28;20236;-84
2022/05/15 14:20:39;;;;;;;7.28;4.20;;;;;;;28.88;47.06;96034.41;5092566;28;20225;-84
2022/05/15 14:23:10;;;;;;;11.02;4.63;;;;;;;28.79;47.09;96030.97;5083628;28;20213;-85
2022/05/15 14:25:41;;;;;;;5.75;4.57;;;;;;;28.85;48.01;96030.34;5101207;28;20264;-84
2022/05/15 14:28:09;;;;;;;5.57;4.32;;;;;;;28.84;46.07;96028.72;5073063;28;20217;-83
2022/05/15 14:30:36;;;;;;;6.18;4.30;;;;;;;28.63;46.70;96030.09;5083146;28;20213;-84
2022/05/15 14:33:09;;;;;;;5.13;4.50;;;;;;;28.76;47.15;96026.06;5084971;28;20217;-83
2022/05/15 14:35:42;;;;;;;6.82;4.10;;;;;;;28.61;46.75;96024.88;5073963;28;20353;-84
2022/05/15 14:38:10;;;;;;;4.70;4.20;;;;;;;28.65;46.85;96031.34;5075472;28;20233;-84
2022/05/15 14:40:37;;;;;;;6.05;4.53;;;;;;;28.61;47.05;96024.88;5079313;28;20217;-83
2022/05/15 14:43:06;;;;;;;6.93;4.63;;;;;;;28.82;47.40;96021.94;5084184;28;20197;-83
2022/05/15 14:45:39;;;;;;;5.57;4.80;;;;;;;28.75;46.67;96018.94;5078443;28;20255;-84
2022/05/15 14:48:13;;;;;;;7.93;4.65;;;;;;;28.85;47.38;96015.63;5081069;28;20300;-84
2022/05/15 14:50:40;;;;;;;5.40;4.40;;;;;;;28.93;48.16;96017.44;5085353;28;20201;-83
2022/05/15 14:53:08;;;;;;;6.32;4.78;;;;;;;28.85;46.69;96012.88;5082730;28;20197;-84
2022/05/15 14:58:22;;;;;;;5.65;4.38;;;;;;;28.68;47.66;96016.75;5098834;28;20205;-84
2022/05/15 15:00:49;;;;;;;4.88;4.35;;;;;;;28.73;47.67;96024.03;5085801;28;20235;-84
2022/05/15 15:03:17;;;;;;;6.78;4.90;;;;;;;28.72;47.17;96012.09;5078261;28;20209;-85
2022/05/15 15:05:49;;;;;;;7.30;4.38;;;;;;;28.63;47.98;96016.19;5077277;28;20599;-84
2022/05/15 15:08:18;;;;;;;8.50;4.65;;;;;;;28.78;47.67;96013.47;5080124;28;20205;-84
2022/05/15 15:10:46;;;;;;;5.10;4.43;;;;;;;28.77;47.63;96013.84;5099373;28;20215;-84
2022/05/15 15:13:14;;;;;;;7.07;4.50;;;;;;;28.75;47.49;96013.38;5078079;28;20210;-84
2022/05/15 15:15:45;;;;;;;4.75;4.35;;;;;;;28.83;48.25;96018.81;5074854;28;20233;-83
2022/05/15 15:18:12;;;;;;;5.78;4.13;;;;;;;28.89;47.92;96017.38;5079689;28;20240;-84
2022/05/15 15:20:42;;;;;;;5.68;4.45;;;;;;;28.93;47.50;96014.66;5080764;28;20239;-83
2022/05/15 15:23:09;;;;;;;7.53;4.40;;;;;;;28.67;47.10;96006.78;5096631;28;20223;-83
2022/05/15 15:25:36;;;;;;;4.53;4.13;;;;;;;28.74;47.25;96006.19;5087851;28;20201;-83
2022/05/15 15:28:03;;;;;;;5.88;4.97;;;;;;;28.72;47.46;95997.41;5083749;28;20251;-83
2022/05/15 15:30:30;;;;;;;8.13;4.65;;;;;;;28.90;47.74;96007.06;5077038;28;20201;-85
2022/05/15 15:32:59;;;;;;;5.35;4.85;;;;;;;28.93;47.84;96003.56;5100027;28;20208;-83
2022/05/15 15:35:29;;;;;;;5.30;4.45;;;;;;;28.86;47.56;96006.97;5084774;28;20208;-84
2022/05/15 15:38:16;;;;;;;6.53;4.63;;;;;;;28.96;48.32;96000.88;5085107;28;20224;-85
2022/05/15 15:40:44;;;;;;;9.57;4.65;;;;;;;28.93;47.83;95995.22;5069788;28;20266;-84
2022/05/15 15:43:11;;;;;;;5.88;4.75;;;;;;;28.98;49.48;95992.19;5081600;28;20200;-85
2022/05/15 15:45:39;;;;;;;4.95;4.53;;;;;;;29.04;49.89;95993.53;5083539;28;20273;-84
2022/05/15 15:48:07;;;;;;;8.15;4.68;;;;;;;29.02;48.16;95983.94;5072091;28;20356;-84
2022/05/15 15:50:35;;;;;;;4.57;4.18;;;;;;;29.04;49.95;95999.09;5075356;28;20296;-85
2022/05/15 15:53:05;;;;;;;8.73;4.60;;;;;;;28.83;48.79;95990.19;5092555;28;20213;-86
2022/05/15 15:55:35;;;;;;;6.15;4.95;;;;;;;28.74;49.41;95993.13;5073735;28;20221;-84
2022/05/15 15:58:04;;;;;;;5.75;4.70;;;;;;;28.36;50.43;95990.84;5068103;28;20205;-85
2022/05/15 16:00:32;;;;;;;7.10;4.57;;;;;;;27.99;50.79;95992.06;5068975;28;20251;-85
2022/05/15 16:03:00;;;;;;;6.10;4.70;;;;;;;27.83;51.12;95987.25;5081660;28;20261;-85
2022/05/15 16:05:28;;;;;;;6.35;4.75;;;;;;;27.93;51.09;95982.38;5085287;28;20211;-85
2022/05/15 16:08:01;;;;;;;5.20;4.70;;;;;;;28.02;52.02;95980.28;5082194;28;20219;-86
2022/05/15 16:10:32;;;;;;;6.18;4.78;;;;;;;28.05;50.45;95980.41;5089477;28;20205;-86
2022/05/15 16:13:00;;;;;;;8.00;5.22;;;;;;;27.64;52.21;95978.75;5102902;28;20208;-86
2022/05/15 16:15:27;;;;;;;5.82;4.85;;;;;;;27.53;53.03;95985.06;5073795;28;20236;-85
2022/05/15 16:17:56;;;;;;;5.57;4.90;;;;;;;27.60;52.98;95980.59;5069471;28;20232;-86
2022/05/15 16:20:27;;;;;;;5.70;5.10;;;;;;;27.52;53.33;95984.25;5079957;28;20221;-86
2022/05/15 16:22:55;;;;;;;6.20;5.50;;;;;;;27.45;53.29;95982.09;5087450;28;20273;-85
2022/05/15 16:25:22;;;;;;;8.52;5.43;;;;;;;27.52;52.62;95984.25;5080434;28;20209;-85
2022/05/15 16:27:54;;;;;;;6.47;5.72;;;;;;;27.45;53.07;95984.84;5075815;28;20209;-85
2022/05/15 16:30:21;;;;;;;7.70;5.00;;;;;;;27.40;52.90;95975.94;5068503;28;20216;-84
2022/05/15 16:32:51;;;;;;;5.07;4.65;;;;;;;27.42;53.22;95991.09;5081847;28;20212;-85
2022/05/15 16:35:19;;;;;;;8.27;5.00;;;;;;;27.42;53.17;95995.81;5073204;28;20206;-84
2022/05/15 16:37:49;;;;;;;8.20;5.10;;;;;;;27.41;54.02;95980.34;5073537;28;20193;-84
2022/05/15 16:40:18;;;;;;;11.80;5.32;;;;;;;27.45;53.97;95981.28;5081360;28;20249;-86
2022/05/15 16:42:45;;;;;;;6.20;5.60;;;;;;;27.22;53.07;95975.34;5076288;28;20201;-84
2022/05/15 16:45:16;;;;;;;5.85;4.38;;;;;;;27.19;53.96;95986.34;5080119;28;20205;-85
2022/05/15 16:47:43;;;;;;;6.00;5.38;;;;;;;27.13;54.26;95987.75;5082831;28;20205;-86
2022/05/15 16:50:14;;;;;;;5.60;4.90;;;;;;;27.15;54.69;95990.94;5071373;28;20221;-85
2022/05/15 16:52:41;;;;;;;5.65;4.93;;;;;;;27.11;56.72;95986.13;5068798;28;20220;-85
2022/05/15 16:55:09;;;;;;;5.10;4.53;;;;;;;27.19;58.64;95986.34;5077194;28;20204;-85
2022/05/15 16:57:37;;;;;;;6.13;4.60;;;;;;;27.21;59.62;95995.13;5083522;28;20288;-86
2022/05/15 17:00:05;;;;;;;5.70;4.75;;;;;;;27.06;60.28;96004.91;5083808;28;20256;-85
2022/05/15 17:02:36;;;;;;;7.28;4.93;;;;;;;26.83;60.32;95996.19;5075967;28;20217;-85
2022/05/15 17:05:04;;;;;;;5.50;5.00;;;;;;;26.58;59.79;95994.50;5073907;28;20328;-85
2022/05/15 17:07:31;;;;;;;6.32;4.95;;;;;;;26.53;59.75;95994.72;5074682;28;20201;-86
2022/05/15 17:09:59;;;;;;;5.65;4.55;;;;;;;26.20;56.72;95987.16;5074937;28;20208;-85
2022/05/15 17:12:26;;;;;;;6.75;4.55;;;;;;;26.17;59.83;95989.81;5073493;28;20251;-85
2022/05/15 17:14:53;;;;;;;6.38;5.20;;;;;;;26.08;62.94;95997.38;5091817;28;20208;-85
2022/05/15 17:17:20;;;;;;;6.72;5.18;;;;;;;25.88;61.39;95997.03;5072416;28;20235;-85
2022/05/15 17:19:49;;;;;;;7.03;5.43;;;;;;;25.81;65.87;96015.31;5068022;28;20287;-85
2022/05/15 17:22:17;;;;;;;5.47;4.88;;;;;;;25.60;59.95;96015.28;5067041;28;20327;-84
2022/05/15 17:24:44;;;;;;;8.30;5.10;;;;;;;25.41;66.95;96023.16;5076931;28;20228;-86
2022/05/15 17:27:11;;;;;;;6.13;5.53;;;;;;;25.13;68.94;96017.25;5070821;28;20204;-84
2022/05/15 17:35:13;;;;;;;12.02;5.65;;;;;;;23.94;81.42;96053.72;5071849;28;20205;-85
2022/05/15 17:37:40;;;;;;;9.80;6.28;;;;;;;23.55;88.06;96062.91;5068877;28;20220;-84
2022/05/15 17:40:11;;;;;;;16.25;6.38;;;;;;;22.75;99.44;96077.72;5085977;28;20223;-85
2022/05/15 17:42:38;;;;;;;19.77;8.07;;;;;;;21.62;100.00;96093.47;5079126;28;20201;-84
2022/05/15 17:45:08;;;;;;;14.18;8.00;;;;;;;20.91;100.00;96109.38;5076463;28;20201;-85
2022/05/15 17:47:37;;;;;;;14.15;9.30;;;;;;;20.66;100.00;96127.09;5079025;28;20212;-85
2022/05/15 17:50:06;;;;;;;22.00;8.60;;;;;;;20.44;100.00;96129.63;5085616;28;20214;-85
2022/05/15 17:52:36;;;;;;;17.48;8.95;;;;;;;20.30;100.00;96135.03;5083096;28;20275;-87
2022/05/15 17:55:07;;;;;;;20.40;10.30;;;;;;;19.64;100.00;96149.66;5086072;28;20227;-86
2022/05/15 17:57:34;;;;;;;20.13;9.63;;;;;;;19.53;100.00;96152.78;5088756;28;20249;-87
2022/05/15 18:00:02;;;;;;;22.90;9.88;;;;;;;19.26;100.00;96142.38;5091092;28;20224;-87
2022/05/15 18:02:34;;;;;;;11.50;6.23;;;;;;;19.17;100.00;96157.78;5076504;28;20238;-86
2022/05/15 18:05:03;;;;;;;31.80;9.87;;;;;;;19.30;100.00;96137.16;5077042;28;20268;-87
2022/05/15 18:07:30;;;;;;;17.50;7.57;;;;;;;18.92;100.00;96147.09;5080363;28;20303;-87
2022/05/15 18:10:01;;;;;;;16.73;9.17;;;;;;;19.11;100.00;96151.56;5082621;28;20254;-88
2022/05/15 18:12:30;;;;;;;17.63;9.57;;;;;;;19.04;100.00;96150.28;5082403;28;20205;-87
2022/05/15 18:14:57;;;;;;;19.67;10.53;;;;;;;18.85;100.00;96145.53;5078729;28;20197;-87
2022/05/15 18:17:24;;;;;;;24.43;10.03;;;;;;;18.91;100.00;96154.47;5095304;28;20371;-86
2022/05/15 18:19:55;;;;;;;15.17;8.50;;;;;;;18.95;100.00;96157.47;5094050;28;20274;-86
2022/05/15 18:22:22;;;;;;;20.70;7.77;;;;;;;18.89;100.00;96173.91;5086885;28;20465;-86
2022/05/15 18:25:03;;;;;;;13.30;8.33;;;;;;;18.83;100.00;96155.09;5081384;28;20205;-88
2022/05/15 18:27:34;;;;;;;17.17;9.07;;;;;;;18.80;100.00;96155.66;5081647;28;20216;-85
2022/05/15 18:30:02;;;;;;;14.67;9.20;;;;;;;18.76;100.00;96155.44;5092113;28;20204;-85
2022/05/15 18:32:29;;;;;;;20.63;10.57;;;;;;;18.82;100.00;96156.22;5079865;28;20200;-85
2022/05/15 18:34:56;;;;;;;16.47;8.90;;;;;;;18.84;100.00;96173.97;5100375;28;20209;-84
2022/05/15 18:37:24;;;;;;;16.70;8.80;;;;;;;18.84;100.00;96178.63;5086161;28;20286;-84
2022/05/15 18:39:51;;;;;;;15.93;8.67;;;;;;;18.86;100.00;96182.72;5090012;28;20227;-85
2022/05/15 18:42:21;;;;;;;15.10;8.60;;;;;;;18.88;100.00;96191.44;5084209;28;20291;-85
2022/05/15 18:44:48;;;;;;;11.23;7.57;;;;;;;18.79;100.00;96189.63;5078190;28;20301;-85
2022/05/15 18:47:15;;;;;;;13.33;8.67;;;;;;;18.65;100.00;96202.28;5093794;28;20201;-85
2022/05/15 18:55:09;;;;;;;12.90;8.87;;;;;;;18.75;100.00;96208.50;5073228;28;20342;-85
2022/05/15 18:57:38;;;;;;;11.70;8.03;;;;;;;18.74;100.00;96217.81;5082050;28;20215;-85
2022/05/15 19:00:07;;;;;;;14.27;8.97;;;;;;;18.76;100.00;96204.69;5078186;28;20252;-85
2022/05/15 19:02:34;;;;;;;6.83;6.10;;;;;;;18.80;100.00;96215.84;5077061;28;20216;-85
2022/05/15 19:05:03;;;;;;;10.53;7.73;;;;;;;18.94;100.00;96226.97;5077741;28;20210;-85
2022/05/15 19:07:30;;;;;;;10.90;9.67;;;;;;;19.03;100.00;96241.69;5082964;28;20196;-85
2022/05/15 19:09:57;;;;;;;14.20;11.77;;;;;;;18.90;100.00;96254.06;5092933;28;20280;-84
2022/05/15 19:12:25;;;;;;;11.60;6.57;;;;;;;18.90;100.00;96279.53;5089973;28;20201;-85
2022/05/15 19:14:54;;;;;;;10.17;7.90;;;;;;;18.72;100.00;96291.13;5072652;28;20201;-85
2022/05/15 19:17:21;;;;;;;14.10;6.20;;;;;;;18.57;100.00;96304.91;5079811;28;20261;-84
2022/05/15 19:19:48;;;;;;;9.33;4.17;;;;;;;18.51;100.00;96322.41;5080034;28;20209;-84
2022/05/15 19:22:15;;;;;;;6.23;4.10;;;;;;;18.83;100.00;96311.84;5080905;28;20299;-88
2022/05/15 19:24:43;;;;;;;5.23;3.10;;;;;;;19.16;100.00;96345.84;5074532;28;20218;-86
2022/05/15 19:27:10;;;;;;;6.17;3.30;;;;;;;19.26;100.00;96351.25;5081948;28;20212;-87
2022/05/15 19:29:37;;;;;;;7.20;2.77;;;;;;;19.50;100.00;96358.75;5071746;28;20204;-87
2022/05/15 19:32:08;;;;;;;3.70;3.13;;;;;;;19.39;100.00;96358.00;5085258;28;20226;-85
2022/05/15 19:34:37;;;;;;;8.97;3.30;;;;;;;19.41;100.00;96357.69;5086444;28;20216;-85
2022/05/15 19:37:05;;;;;;;4.77;2.50;;;;;;;19.11;100.00;96361.47;5077507;28;20244;-86
2022/05/15 19:39:32;;;;;;;5.70;2.90;;;;;;;18.86;100.00;96354.25;5088929;28;20213;-86
2022/05/15 19:42:00;;;;;;;5.70;2.30;;;;;;;18.63;100.00;96349.47;5084575;28;20232;-86
2022/05/15 19:44:28;;;;;;;7.57;2.20;;;;;;;18.73;100.00;96342.00;5074447;28;20197;-86
2022/05/15 19:46:55;;;;;;;4.63;2.37;;;;;;;18.90;100.00;96353.38;5075749;28;20243;-86
2022/05/15 19:49:23;;;;;;;2.10;1.90;;;;;;;18.92;99.73;96346.81;5074952;28;20251;-86
2022/05/15 19:51:51;;;;;;;4.47;2.87;;;;;;;18.91;100.00;96343.28;5082678;28;20221;-86
2022/05/15 19:54:18;;;;;;;6.20;2.30;;;;;;;18.85;100.00;96353.44;5074102;28;20197;-87
2022/05/15 19:56:46;;;;;;;4.50;2.10;;;;;;;18.83;100.00;96349.34;5078268;28;20240;-87
2022/05/15 19:59:18;;;;;;;4.33;2.57;;;;;;;18.69;100.00;96343.69;5092407;28;20205;-86
2022/05/15 20:01:46;;;;;;;4.33;2.90;;;;;;;18.63;100.00;96352.19;5071737;28;20303;-86
2022/05/15 20:04:13;;;;;;;7.77;2.27;;;;;;;18.59;100.00;96357.41;5083706;28;20292;-86
2022/05/15 20:12:13;;;;;;;4.00;2.20;;;;;;;18.35;100.00;96350.91;5043650;28;20307;-86
2022/05/15 20:14:41;;;;;;;12.17;2.67;;;;;;;17.98;100.00;96346.66;5081036;28;20209;-86
2022/05/15 20:17:13;;;;;;;3.57;2.30;;;;;;;17.86;100.00;96345.31;5077799;28;20300;-87
2022/05/15 20:19:40;;;;;;;3.13;2.67;;;;;;;17.73;100.00;96344.78;5076107;28;20247;-87
2022/05/15 20:22:09;;;;;;;3.77;2.53;;;;;;;17.69;100.00;96337.44;5074806;28;20232;-86
2022/05/15 20:24:37;;;;;;;3.73;2.40;;;;;;;17.59;100.00;96340.97;5071653;28;20209;-87
2022/05/15 20:27:05;;;;;;;5.13;2.63;;;;;;;17.62;100.00;96350.53;5072863;28;20218;-86
2022/05/15 20:29:33;;;;;;;2.63;2.43;;;;;;;17.35;100.00;96343.41;5079440;28;20271;-86
2022/05/15 20:32:00;;;;;;;3.60;2.60;;;;;;;17.37;100.00;96343.97;5082328;28;20205;-87
2022/05/15 20:34:30;;;;;;;5.13;3.00;;;;;;;17.23;100.00;96344.78;5058863;28;20214;-87
2022/05/15 20:36:59;;;;;;;6.20;2.67;;;;;;;17.13;100.00;96350.22;5078400;28;20292;-87
2022/05/15 20:39:29;;;;;;;5.17;2.60;;;;;;;17.00;100.00;96357.88;5075794;28;20224;-86
2022/05/15 20:41:57;;;;;;;3.80;2.50;;;;;;;17.02;100.00;96357.56;5088170;28;20225;-86
2022/05/15 20:44:26;;;;;;;4.03;2.47;;;;;;;17.05;100.00;96362.50;5083514;28;20205;-86
2022/05/15 20:46:54;;;;;;;6.13;2.50;;;;;;;17.16;100.00;96371.53;5076491;28;20209;-86
2022/05/15 20:49:21;;;;;;;3.00;2.40;;;;;;;17.13;100.00;96372.88;5084741;28;20219;-87
2022/05/15 20:51:49;;;;;;;3.00;2.37;;;;;;;17.23;100.00;96378.34;5070955;28;20287;-87
2022/05/15 20:54:20;;;;;;;3.50;2.60;;;;;;;17.22;100.00;96393.09;5084909;28;20272;-86
2022/05/15 20:56:50;;;;;;;4.63;2.53;;;;;;;17.24;100.00;96390.91;5075045;28;20206;-86
2022/05/15 20:59:18;;;;;;;3.27;2.57;;;;;;;17.22;100.00;96403.19;5095498;28;20216;-86
2022/05/15 21:01:45;;;;;;;3.43;2.70;;;;;;;17.21;100.00;96409.72;5076068;28;20228;-87
2022/05/15 21:04:13;;;;;;;6.37;2.80;;;;;;;17.25;100.00;96413.56;5086029;28;20269;-85
2022/05/15 21:06:41;;;;;;;5.83;2.97;;;;;;;17.42;100.00;96418.75;5082968;28;20256;-86
2022/05/15 21:09:08;;;;;;;3.90;2.53;;;;;;;17.33;100.00;96411.13;5080447;28;20216;-86
2022/05/15 21:11:36;;;;;;;5.80;2.60;;;;;;;17.25;100.00;96405.38;5085787;28;20209;-86
2022/05/15 21:14:05;;;;;;;3.77;2.60;;;;;;;17.23;100.00;96411.09;5083823;28;20207;-86
2022/05/15 21:16:32;;;;;;;5.63;2.63;;;;;;;17.19;100.00;96420.91;5075975;28;20209;-86
2022/05/15 21:19:00;;;;;;;4.33;2.67;;;;;;;17.08;100.00;96419.25;5089246;28;20245;-86
2022/05/15 21:21:27;;;;;;;3.13;2.83;;;;;;;17.02;100.00;96417.59;5075932;28;20228;-87
2022/05/15 21:23:54;;;;;;;9.33;3.00;;;;;;;16.95;100.00;96422.50;5079720;28;20211;-87
2022/05/15 21:26:22;;;;;;;4.87;3.00;;;;;;;16.91;100.00;96416.75;5073486;28;20216;-86
2022/05/15 21:28:49;;;;;;;4.13;3.00;;;;;;;16.93;100.00;96435.56;5070153;28;20197;-86
2022/05/15 21:31:18;;;;;;;3.17;2.73;;;;;;;16.83;100.00;96430.09;5070446;28;20219;-86
2022/05/15 21:33:45;;;;;;;3.70;3.10;;;;;;;16.82;100.00;96425.72;5074326;28;20213;-86
2022/05/15 21:36:13;;;;;;;7.30;3.37;;;;;;;16.84;100.00;96429.03;5077791;28;20236;-86
2022/05/15 21:44:09;;;;;;;3.93;2.70;;;;;;;16.95;100.00;96428.75;5070609;28;20294;-86
2022/05/15 21:46:38;;;;;;;9.50;3.07;;;;;;;17.01;100.00;96429.63;5074978;28;20209;-86
2022/05/15 21:49:05;;;;;;;3.17;2.83;;;;;;;16.94;100.00;96434.47;5078132;28;20201;-86